sensor_id;sensor_type;location;lat;lon;timestamp;P1;durP1;ratioP1;P2;durP2;ratioP2
3995;SDS011;2012;49.794;9.722;2023-09-19T00:00:44;1.90;;;0.80;;
3995;SDS011;2012;49.794;9.722;2023-09-19T00:03:14;1.83;;;1.00;;
3995;SDS011;2012;49.794;9.722;2023-09-19T00:05:41;0.97;;;0.90;;
3995;SDS011;2012;49.794;9.722;2023-09-19T00:08:12;2.00;;;1.07;;
3995;SDS011;2012;49.794;9.722;2023-09-19T00:10:42;0.77;;;0.70;;
3995;SDS011;2012;49.794;9.722;2023-09-19T00:13:10;1.20;;;0.80;;
3995;SDS011;2012;49.794;9.722;2023-09-19T00:15:45;1.20;;;0.70;;
3995;SDS011;2012;49.794;9.722;2023-09-19T00:18:19;2.00;;;0.80;;
3995;SDS011;2012;49.794;9.722;2023-09-19T00:20:49;2.10;;;0.90;;
3995;SDS011;2012;49.794;9.722;2023-09-19T00:23:18;1.40;;;0.83;;
3995;SDS011;2012;49.794;9.722;2023-09-19T00:25:46;1.33;;;0.80;;
3995;SDS011;2012;49.794;9.722;2023-09-19T00:28:13;2.30;;;0.90;;
3995;SDS011;2012;49.794;9.722;2023-09-19T00:30:44;1.27;;;0.80;;
3995;SDS011;2012;49.794;9.722;2023-09-19T00:33:17;1.90;;;0.83;;
3995;SDS011;2012;49.794;9.722;2023-09-19T00:35:48;1.10;;;0.80;;
3995;SDS011;2012;49.794;9.722;2023-09-19T00:38:16;1.40;;;1.10;;
3995;SDS011;2012;49.794;9.722;2023-09-19T00:40:44;0.80;;;0.80;;
3995;SDS011;2012;49.794;9.722;2023-09-19T00:43:12;1.10;;;0.90;;
3995;SDS011;2012;49.794;9.722;2023-09-19T00:45:41;4.53;;;0.93;;
3995;SDS011;2012;49.794;9.722;2023-09-19T00:48:10;3.80;;;1.07;;
3995;SDS011;2012;49.794;9.722;2023-09-19T00:50:38;5.03;;;1.20;;
3995;SDS011;2012;49.794;9.722;2023-09-19T00:53:10;1.93;;;0.80;;
3995;SDS011;2012;49.794;9.722;2023-09-19T00:55:42;2.37;;;0.90;;
3995;SDS011;2012;49.794;9.722;2023-09-19T00:58:10;1.47;;;1.00;;
3995;SDS011;2012;49.794;9.722;2023-09-19T01:00:38;2.50;;;1.10;;
3995;SDS011;2012;49.794;9.722;2023-09-19T01:03:07;1.33;;;0.93;;
3995;SDS011;2012;49.794;9.722;2023-09-19T01:05:34;3.00;;;1.00;;
3995;SDS011;2012;49.794;9.722;2023-09-19T01:08:02;2.30;;;1.20;;
3995;SDS011;2012;49.794;9.722;2023-09-19T01:14:22;4.70;;;1.00;;
3995;SDS011;2012;49.794;9.722;2023-09-19T01:17:00;1.27;;;1.17;;
3995;SDS011;2012;49.794;9.722;2023-09-19T01:19:46;1.97;;;1.00;;
3995;SDS011;2012;49.794;9.722;2023-09-19T01:30:57;1.20;;;1.10;;
3995;SDS011;2012;49.794;9.722;2023-09-19T01:33:26;4.20;;;1.10;;
3995;SDS011;2012;49.794;9.722;2023-09-19T01:35:53;1.40;;;1.00;;
3995;SDS011;2012;49.794;9.722;2023-09-19T01:38:24;2.13;;;1.00;;
3995;SDS011;2012;49.794;9.722;2023-09-19T01:40:56;2.23;;;1.30;;
3995;SDS011;2012;49.794;9.722;2023-09-19T01:43:32;3.00;;;1.07;;
3995;SDS011;2012;49.794;9.722;2023-09-19T01:49:12;1.53;;;1.00;;
3995;SDS011;2012;49.794;9.722;2023-09-19T01:51:53;2.40;;;1.10;;
3995;SDS011;2012;49.794;9.722;2023-09-19T01:54:31;4.33;;;1.50;;
3995;SDS011;2012;49.794;9.722;2023-09-19T01:57:14;1.63;;;1.00;;
3995;SDS011;2012;49.794;9.722;2023-09-19T01:59:57;1.30;;;1.10;;
3995;SDS011;2012;49.794;9.722;2023-09-19T02:02:45;5.40;;;1.03;;
3995;SDS011;2012;49.794;9.722;2023-09-19T02:05:21;19.13;;;1.27;;
3995;SDS011;2012;49.794;9.722;2023-09-19T02:07:53;2.67;;;1.20;;
3995;SDS011;2012;49.794;9.722;2023-09-19T02:10:20;4.03;;;1.40;;
3995;SDS011;2012;49.794;9.722;2023-09-19T02:12:47;1.40;;;0.90;;
3995;SDS011;2012;49.794;9.722;2023-09-19T02:15:14;1.10;;;1.00;;
3995;SDS011;2012;49.794;9.722;2023-09-19T02:17:42;1.60;;;1.10;;
3995;SDS011;2012;49.794;9.722;2023-09-19T02:20:10;4.80;;;1.30;;
3995;SDS011;2012;49.794;9.722;2023-09-19T02:22:41;2.20;;;1.17;;
3995;SDS011;2012;49.794;9.722;2023-09-19T02:25:09;1.30;;;1.20;;
3995;SDS011;2012;49.794;9.722;2023-09-19T02:27:36;4.77;;;1.20;;
3995;SDS011;2012;49.794;9.722;2023-09-19T02:30:04;4.20;;;1.10;;
3995;SDS011;2012;49.794;9.722;2023-09-19T02:32:32;2.97;;;1.20;;
3995;SDS011;2012;49.794;9.722;2023-09-19T02:35:02;2.60;;;1.20;;
3995;SDS011;2012;49.794;9.722;2023-09-19T02:37:31;3.43;;;1.30;;
3995;SDS011;2012;49.794;9.722;2023-09-19T02:39:59;1.50;;;1.40;;
3995;SDS011;2012;49.794;9.722;2023-09-19T02:42:26;3.63;;;1.60;;
3995;SDS011;2012;49.794;9.722;2023-09-19T02:44:52;1.53;;;1.43;;
3995;SDS011;2012;49.794;9.722;2023-09-19T02:47:19;6.30;;;1.60;;
3995;SDS011;2012;49.794;9.722;2023-09-19T02:49:46;3.73;;;1.23;;
3995;SDS011;2012;49.794;9.722;2023-09-19T02:52:13;3.87;;;2.00;;
3995;SDS011;2012;49.794;9.722;2023-09-19T02:54:41;4.37;;;1.87;;
3995;SDS011;2012;49.794;9.722;2023-09-19T02:57:11;4.00;;;1.57;;
3995;SDS011;2012;49.794;9.722;2023-09-19T02:59:40;1.77;;;1.33;;
3995;SDS011;2012;49.794;9.722;2023-09-19T03:02:08;3.43;;;1.27;;
3995;SDS011;2012;49.794;9.722;2023-09-19T03:04:36;6.27;;;1.60;;
3995;SDS011;2012;49.794;9.722;2023-09-19T03:07:03;2.40;;;1.63;;
3995;SDS011;2012;49.794;9.722;2023-09-19T03:09:30;2.53;;;1.53;;
3995;SDS011;2012;49.794;9.722;2023-09-19T03:11:57;6.40;;;1.80;;
3995;SDS011;2012;49.794;9.722;2023-09-19T03:14:25;4.33;;;1.70;;
3995;SDS011;2012;49.794;9.722;2023-09-19T03:16:57;4.07;;;1.80;;
3995;SDS011;2012;49.794;9.722;2023-09-19T03:19:26;1.83;;;1.70;;
3995;SDS011;2012;49.794;9.722;2023-09-19T03:21:53;2.30;;;1.67;;
3995;SDS011;2012;49.794;9.722;2023-09-19T03:24:20;5.23;;;1.87;;
3995;SDS011;2012;49.794;9.722;2023-09-19T03:26:47;3.27;;;1.63;;
3995;SDS011;2012;49.794;9.722;2023-09-19T03:29:15;6.83;;;2.23;;
3995;SDS011;2012;49.794;9.722;2023-09-19T03:31:44;6.20;;;2.30;;
3995;SDS011;2012;49.794;9.722;2023-09-19T03:34:12;15.47;;;2.47;;
3995;SDS011;2012;49.794;9.722;2023-09-19T03:36:39;5.10;;;1.90;;
3995;SDS011;2012;49.794;9.722;2023-09-19T03:39:07;5.43;;;1.93;;
3995;SDS011;2012;49.794;9.722;2023-09-19T03:41:34;2.60;;;1.47;;
3995;SDS011;2012;49.794;9.722;2023-09-19T03:44:03;3.87;;;1.60;;
3995;SDS011;2012;49.794;9.722;2023-09-19T03:46:30;3.00;;;2.30;;
3995;SDS011;2012;49.794;9.722;2023-09-19T03:48:58;4.70;;;2.70;;
3995;SDS011;2012;49.794;9.722;2023-09-19T03:51:25;3.07;;;1.43;;
3995;SDS011;2012;49.794;9.722;2023-09-19T03:53:52;2.50;;;1.60;;
3995;SDS011;2012;49.794;9.722;2023-09-19T03:56:20;1.67;;;1.30;;
3995;SDS011;2012;49.794;9.722;2023-09-19T03:58:47;2.13;;;1.67;;
3995;SDS011;2012;49.794;9.722;2023-09-19T04:01:13;2.50;;;1.50;;
3995;SDS011;2012;49.794;9.722;2023-09-19T04:03:41;5.13;;;1.50;;
3995;SDS011;2012;49.794;9.722;2023-09-19T04:06:14;2.10;;;1.37;;
3995;SDS011;2012;49.794;9.722;2023-09-19T04:08:42;3.80;;;1.33;;
3995;SDS011;2012;49.794;9.722;2023-09-19T04:11:11;3.23;;;1.57;;
3995;SDS011;2012;49.794;9.722;2023-09-19T04:13:38;1.90;;;1.53;;
3995;SDS011;2012;49.794;9.722;2023-09-19T04:16:06;4.00;;;2.33;;
3995;SDS011;2012;49.794;9.722;2023-09-19T04:18:37;3.57;;;1.67;;
3995;SDS011;2012;49.794;9.722;2023-09-19T04:21:05;3.40;;;1.30;;
3995;SDS011;2012;49.794;9.722;2023-09-19T04:23:33;3.27;;;1.30;;
3995;SDS011;2012;49.794;9.722;2023-09-19T04:25:59;3.70;;;1.63;;
3995;SDS011;2012;49.794;9.722;2023-09-19T04:28:27;1.70;;;1.50;;
3995;SDS011;2012;49.794;9.722;2023-09-19T04:30:56;8.13;;;1.57;;
3995;SDS011;2012;49.794;9.722;2023-09-19T04:33:24;3.90;;;1.20;;
3995;SDS011;2012;49.794;9.722;2023-09-19T04:35:53;2.73;;;1.40;;
3995;SDS011;2012;49.794;9.722;2023-09-19T04:38:20;7.00;;;1.70;;
3995;SDS011;2012;49.794;9.722;2023-09-19T04:40:47;2.20;;;1.50;;
3995;SDS011;2012;49.794;9.722;2023-09-19T04:43:15;3.80;;;1.60;;
3995;SDS011;2012;49.794;9.722;2023-09-19T04:45:42;5.33;;;1.57;;
3995;SDS011;2012;49.794;9.722;2023-09-19T04:48:09;5.83;;;1.83;;
3995;SDS011;2012;49.794;9.722;2023-09-19T04:50:37;2.30;;;1.50;;
3995;SDS011;2012;49.794;9.722;2023-09-19T04:53:04;2.37;;;1.50;;
3995;SDS011;2012;49.794;9.722;2023-09-19T04:55:32;3.40;;;1.73;;
3995;SDS011;2012;49.794;9.722;2023-09-19T04:57:59;3.57;;;2.17;;
3995;SDS011;2012;49.794;9.722;2023-09-19T05:00:26;4.87;;;1.20;;
3995;SDS011;2012;49.794;9.722;2023-09-19T05:02:57;3.73;;;1.47;;
3995;SDS011;2012;49.794;9.722;2023-09-19T05:05:24;2.50;;;1.70;;
3995;SDS011;2012;49.794;9.722;2023-09-19T05:07:52;1.60;;;1.50;;
3995;SDS011;2012;49.794;9.722;2023-09-19T05:10:20;3.57;;;1.60;;
3995;SDS011;2012;49.794;9.722;2023-09-19T05:12:48;3.10;;;1.70;;
3995;SDS011;2012;49.794;9.722;2023-09-19T05:15:18;2.43;;;1.53;;
3995;SDS011;2012;49.794;9.722;2023-09-19T05:17:48;6.17;;;1.50;;
3995;SDS011;2012;49.794;9.722;2023-09-19T05:20:23;3.53;;;1.83;;
3995;SDS011;2012;49.794;9.722;2023-09-19T05:23:02;6.47;;;1.67;;
3995;SDS011;2012;49.794;9.722;2023-09-19T05:25:34;4.30;;;1.70;;
3995;SDS011;2012;49.794;9.722;2023-09-19T05:28:06;3.87;;;1.60;;
3995;SDS011;2012;49.794;9.722;2023-09-19T05:30:34;4.33;;;1.63;;
3995;SDS011;2012;49.794;9.722;2023-09-19T05:33:12;1.70;;;1.60;;
3995;SDS011;2012;49.794;9.722;2023-09-19T05:35:39;2.20;;;1.30;;
3995;SDS011;2012;49.794;9.722;2023-09-19T05:38:08;3.03;;;1.57;;
3995;SDS011;2012;49.794;9.722;2023-09-19T05:40:35;4.13;;;1.60;;
3995;SDS011;2012;49.794;9.722;2023-09-19T05:43:03;4.87;;;1.87;;
3995;SDS011;2012;49.794;9.722;2023-09-19T05:45:32;12.50;;;2.53;;
3995;SDS011;2012;49.794;9.722;2023-09-19T05:48:06;4.13;;;1.80;;
3995;SDS011;2012;49.794;9.722;2023-09-19T05:50:38;2.17;;;1.90;;
3995;SDS011;2012;49.794;9.722;2023-09-19T05:53:05;4.17;;;1.77;;
3995;SDS011;2012;49.794;9.722;2023-09-19T05:55:32;7.07;;;2.10;;
3995;SDS011;2012;49.794;9.722;2023-09-19T05:57:59;2.83;;;1.67;;
3995;SDS011;2012;49.794;9.722;2023-09-19T06:00:26;2.20;;;1.87;;
3995;SDS011;2012;49.794;9.722;2023-09-19T06:02:54;4.20;;;1.70;;
3995;SDS011;2012;49.794;9.722;2023-09-19T06:05:23;4.87;;;2.23;;
3995;SDS011;2012;49.794;9.722;2023-09-19T06:07:53;4.30;;;2.00;;
3995;SDS011;2012;49.794;9.722;2023-09-19T06:10:20;2.90;;;2.00;;
3995;SDS011;2012;49.794;9.722;2023-09-19T06:12:49;4.47;;;2.20;;
3995;SDS011;2012;49.794;9.722;2023-09-19T06:15:16;4.70;;;2.70;;
3995;SDS011;2012;49.794;9.722;2023-09-19T06:17:53;14.33;;;2.20;;
3995;SDS011;2012;49.794;9.722;2023-09-19T06:20:22;6.50;;;2.30;;
3995;SDS011;2012;49.794;9.722;2023-09-19T06:22:50;6.30;;;2.30;;
3995;SDS011;2012;49.794;9.722;2023-09-19T06:25:18;9.20;;;2.20;;
3995;SDS011;2012;49.794;9.722;2023-09-19T06:27:47;6.43;;;2.60;;
3995;SDS011;2012;49.794;9.722;2023-09-19T06:30:21;5.57;;;2.20;;
3995;SDS011;2012;49.794;9.722;2023-09-19T06:32:58;2.90;;;2.60;;
3995;SDS011;2012;49.794;9.722;2023-09-19T06:35:26;16.87;;;4.87;;
3995;SDS011;2012;49.794;9.722;2023-09-19T06:37:55;4.63;;;2.57;;
3995;SDS011;2012;49.794;9.722;2023-09-19T06:40:24;3.37;;;1.93;;
3995;SDS011;2012;49.794;9.722;2023-09-19T06:42:52;5.00;;;2.83;;
3995;SDS011;2012;49.794;9.722;2023-09-19T06:45:19;4.67;;;2.60;;
3995;SDS011;2012;49.794;9.722;2023-09-19T06:47:49;3.77;;;2.27;;
3995;SDS011;2012;49.794;9.722;2023-09-19T06:50:18;3.90;;;2.33;;
3995;SDS011;2012;49.794;9.722;2023-09-19T06:52:53;5.50;;;2.40;;
3995;SDS011;2012;49.794;9.722;2023-09-19T06:55:22;2.77;;;2.30;;
3995;SDS011;2012;49.794;9.722;2023-09-19T06:57:55;12.47;;;2.67;;
3995;SDS011;2012;49.794;9.722;2023-09-19T07:00:22;3.47;;;2.33;;
3995;SDS011;2012;49.794;9.722;2023-09-19T07:03:02;2.57;;;2.10;;
3995;SDS011;2012;49.794;9.722;2023-09-19T07:05:35;5.60;;;2.43;;
3995;SDS011;2012;49.794;9.722;2023-09-19T07:08:07;4.23;;;2.07;;
3995;SDS011;2012;49.794;9.722;2023-09-19T07:10:37;4.30;;;2.27;;
3995;SDS011;2012;49.794;9.722;2023-09-19T07:13:06;6.00;;;2.07;;
3995;SDS011;2012;49.794;9.722;2023-09-19T07:15:37;9.47;;;2.50;;
3995;SDS011;2012;49.794;9.722;2023-09-19T07:18:07;3.73;;;2.23;;
3995;SDS011;2012;49.794;9.722;2023-09-19T07:20:37;2.50;;;2.00;;
3995;SDS011;2012;49.794;9.722;2023-09-19T07:23:04;6.67;;;2.20;;
3995;SDS011;2012;49.794;9.722;2023-09-19T07:25:32;5.63;;;2.53;;
3995;SDS011;2012;49.794;9.722;2023-09-19T07:27:59;6.67;;;2.23;;
3995;SDS011;2012;49.794;9.722;2023-09-19T07:30:27;9.53;;;2.60;;
3995;SDS011;2012;49.794;9.722;2023-09-19T07:32:55;4.70;;;2.37;;
3995;SDS011;2012;49.794;9.722;2023-09-19T07:35:22;4.37;;;2.57;;
3995;SDS011;2012;49.794;9.722;2023-09-19T07:37:49;3.73;;;2.53;;
3995;SDS011;2012;49.794;9.722;2023-09-19T07:40:18;3.70;;;2.00;;
3995;SDS011;2012;49.794;9.722;2023-09-19T07:42:45;9.90;;;2.60;;
3995;SDS011;2012;49.794;9.722;2023-09-19T07:45:13;5.63;;;2.40;;
3995;SDS011;2012;49.794;9.722;2023-09-19T07:47:43;3.07;;;2.23;;
3995;SDS011;2012;49.794;9.722;2023-09-19T07:50:12;4.77;;;2.20;;
3995;SDS011;2012;49.794;9.722;2023-09-19T07:52:39;7.30;;;2.50;;
3995;SDS011;2012;49.794;9.722;2023-09-19T07:55:06;3.40;;;2.10;;
3995;SDS011;2012;49.794;9.722;2023-09-19T07:57:37;3.30;;;1.80;;
3995;SDS011;2012;49.794;9.722;2023-09-19T08:00:04;3.50;;;1.90;;
3995;SDS011;2012;49.794;9.722;2023-09-19T08:02:36;2.50;;;2.23;;
3995;SDS011;2012;49.794;9.722;2023-09-19T08:05:05;3.60;;;1.90;;
3995;SDS011;2012;49.794;9.722;2023-09-19T08:07:33;6.70;;;2.10;;
3995;SDS011;2012;49.794;9.722;2023-09-19T08:10:00;6.20;;;2.87;;
3995;SDS011;2012;49.794;9.722;2023-09-19T08:12:26;4.90;;;1.90;;
3995;SDS011;2012;49.794;9.722;2023-09-19T08:14:53;7.00;;;2.33;;
3995;SDS011;2012;49.794;9.722;2023-09-19T08:17:21;7.60;;;2.50;;
3995;SDS011;2012;49.794;9.722;2023-09-19T08:19:51;4.87;;;2.30;;
3995;SDS011;2012;49.794;9.722;2023-09-19T08:22:19;5.20;;;1.90;;
3995;SDS011;2012;49.794;9.722;2023-09-19T08:24:46;7.97;;;2.17;;
3995;SDS011;2012;49.794;9.722;2023-09-19T08:27:14;3.93;;;2.00;;
3995;SDS011;2012;49.794;9.722;2023-09-19T08:29:44;5.90;;;1.83;;
3995;SDS011;2012;49.794;9.722;2023-09-19T08:32:13;9.87;;;1.67;;
3995;SDS011;2012;49.794;9.722;2023-09-19T08:34:40;9.20;;;2.03;;
3995;SDS011;2012;49.794;9.722;2023-09-19T08:37:07;4.23;;;1.67;;
3995;SDS011;2012;49.794;9.722;2023-09-19T08:39:35;7.03;;;2.10;;
3995;SDS011;2012;49.794;9.722;2023-09-19T08:42:03;2.53;;;1.60;;
3995;SDS011;2012;49.794;9.722;2023-09-19T08:44:30;2.70;;;1.43;;
3995;SDS011;2012;49.794;9.722;2023-09-19T08:47:09;4.90;;;1.47;;
3995;SDS011;2012;49.794;9.722;2023-09-19T08:49:41;5.33;;;2.00;;
3995;SDS011;2012;49.794;9.722;2023-09-19T08:52:22;4.53;;;1.43;;
3995;SDS011;2012;49.794;9.722;2023-09-19T08:54:55;11.17;;;1.53;;
3995;SDS011;2012;49.794;9.722;2023-09-19T08:57:25;1.70;;;1.50;;
3995;SDS011;2012;49.794;9.722;2023-09-19T08:59:56;5.30;;;1.90;;
3995;SDS011;2012;49.794;9.722;2023-09-19T09:02:23;7.37;;;1.90;;
3995;SDS011;2012;49.794;9.722;2023-09-19T09:04:51;5.00;;;1.50;;
3995;SDS011;2012;49.794;9.722;2023-09-19T09:07:20;4.27;;;1.70;;
3995;SDS011;2012;49.794;9.722;2023-09-19T09:09:49;8.67;;;1.50;;
3995;SDS011;2012;49.794;9.722;2023-09-19T09:12:15;5.77;;;2.43;;
3995;SDS011;2012;49.794;9.722;2023-09-19T09:14:44;3.90;;;1.87;;
3995;SDS011;2012;49.794;9.722;2023-09-19T09:17:16;4.03;;;2.10;;
3995;SDS011;2012;49.794;9.722;2023-09-19T09:19:47;5.13;;;1.40;;
3995;SDS011;2012;49.794;9.722;2023-09-19T09:22:14;2.53;;;1.40;;
3995;SDS011;2012;49.794;9.722;2023-09-19T09:27:24;8.13;;;1.80;;
3995;SDS011;2012;49.794;9.722;2023-09-19T09:29:51;3.00;;;1.57;;
3995;SDS011;2012;49.794;9.722;2023-09-19T09:32:25;3.90;;;1.50;;
3995;SDS011;2012;49.794;9.722;2023-09-19T09:34:56;3.73;;;1.70;;
3995;SDS011;2012;49.794;9.722;2023-09-19T09:37:27;3.33;;;2.00;;
3995;SDS011;2012;49.794;9.722;2023-09-19T09:39:57;4.40;;;1.40;;
3995;SDS011;2012;49.794;9.722;2023-09-19T09:42:46;4.67;;;1.73;;
3995;SDS011;2012;49.794;9.722;2023-09-19T09:47:46;4.70;;;1.90;;
3995;SDS011;2012;49.794;9.722;2023-09-19T09:50:27;4.03;;;1.90;;
3995;SDS011;2012;49.794;9.722;2023-09-19T09:53:26;3.10;;;1.97;;
3995;SDS011;2012;49.794;9.722;2023-09-19T09:56:17;2.03;;;1.63;;
3995;SDS011;2012;49.794;9.722;2023-09-19T09:58:51;2.87;;;1.80;;
3995;SDS011;2012;49.794;9.722;2023-09-19T10:01:25;3.80;;;1.70;;
3995;SDS011;2012;49.794;9.722;2023-09-19T10:03:58;2.60;;;1.80;;
3995;SDS011;2012;49.794;9.722;2023-09-19T10:06:39;3.83;;;1.90;;
3995;SDS011;2012;49.794;9.722;2023-09-19T10:09:13;4.00;;;1.90;;
3995;SDS011;2012;49.794;9.722;2023-09-19T10:11:44;5.90;;;1.90;;
3995;SDS011;2012;49.794;9.722;2023-09-19T10:14:24;5.73;;;1.97;;
3995;SDS011;2012;49.794;9.722;2023-09-19T10:16:59;6.13;;;1.93;;
3995;SDS011;2012;49.794;9.722;2023-09-19T10:19:33;2.90;;;1.63;;
3995;SDS011;2012;49.794;9.722;2023-09-19T10:22:04;8.63;;;1.80;;
3995;SDS011;2012;49.794;9.722;2023-09-19T10:24:35;5.00;;;1.70;;
3995;SDS011;2012;49.794;9.722;2023-09-19T10:27:17;3.63;;;1.47;;
3995;SDS011;2012;49.794;9.722;2023-09-19T10:29:47;4.70;;;1.83;;
3995;SDS011;2012;49.794;9.722;2023-09-19T10:32:17;3.63;;;1.30;;
3995;SDS011;2012;49.794;9.722;2023-09-19T10:34:49;7.77;;;1.50;;
3995;SDS011;2012;49.794;9.722;2023-09-19T10:37:16;4.07;;;2.10;;
3995;SDS011;2012;49.794;9.722;2023-09-19T10:39:46;5.97;;;2.10;;
3995;SDS011;2012;49.794;9.722;2023-09-19T10:42:16;2.87;;;1.57;;
3995;SDS011;2012;49.794;9.722;2023-09-19T10:44:47;4.70;;;1.50;;
3995;SDS011;2012;49.794;9.722;2023-09-19T10:47:20;4.13;;;1.63;;
3995;SDS011;2012;49.794;9.722;2023-09-19T10:49:51;3.70;;;1.90;;
3995;SDS011;2012;49.794;9.722;2023-09-19T10:52:22;4.10;;;1.47;;
3995;SDS011;2012;49.794;9.722;2023-09-19T10:54:53;2.20;;;1.50;;
3995;SDS011;2012;49.794;9.722;2023-09-19T10:57:24;4.00;;;1.40;;
3995;SDS011;2012;49.794;9.722;2023-09-19T11:00:06;3.97;;;2.50;;
3995;SDS011;2012;49.794;9.722;2023-09-19T11:05:59;12.53;;;4.27;;
3995;SDS011;2012;49.794;9.722;2023-09-19T11:08:50;10.73;;;4.50;;
3995;SDS011;2012;49.794;9.722;2023-09-19T11:33:16;6.53;;;2.50;;
3995;SDS011;2012;49.794;9.722;2023-09-19T11:44:31;4.03;;;2.00;;
3995;SDS011;2012;49.794;9.722;2023-09-19T11:49:30;4.17;;;1.63;;
3995;SDS011;2012;49.794;9.722;2023-09-19T11:51:59;3.53;;;2.00;;
3995;SDS011;2012;49.794;9.722;2023-09-19T11:54:27;3.33;;;1.83;;
3995;SDS011;2012;49.794;9.722;2023-09-19T11:56:58;2.97;;;1.60;;
3995;SDS011;2012;49.794;9.722;2023-09-19T11:59:27;4.70;;;2.10;;
3995;SDS011;2012;49.794;9.722;2023-09-19T12:04:40;3.67;;;1.73;;
3995;SDS011;2012;49.794;9.722;2023-09-19T12:07:11;2.50;;;1.50;;
3995;SDS011;2012;49.794;9.722;2023-09-19T12:09:44;2.60;;;1.50;;
3995;SDS011;2012;49.794;9.722;2023-09-19T12:12:21;1.93;;;1.33;;
3995;SDS011;2012;49.794;9.722;2023-09-19T12:14:50;5.80;;;1.80;;
3995;SDS011;2012;49.794;9.722;2023-09-19T12:17:17;2.93;;;1.50;;
3995;SDS011;2012;49.794;9.722;2023-09-19T12:19:55;3.90;;;1.50;;
3995;SDS011;2012;49.794;9.722;2023-09-19T12:22:23;5.47;;;1.50;;
3995;SDS011;2012;49.794;9.722;2023-09-19T12:24:51;5.43;;;1.47;;
3995;SDS011;2012;49.794;9.722;2023-09-19T12:27:21;6.97;;;1.90;;
3995;SDS011;2012;49.794;9.722;2023-09-19T12:29:49;2.20;;;1.50;;
3995;SDS011;2012;49.794;9.722;2023-09-19T12:32:16;5.67;;;2.40;;
3995;SDS011;2012;49.794;9.722;2023-09-19T12:34:52;3.60;;;1.43;;
3995;SDS011;2012;49.794;9.722;2023-09-19T12:37:21;8.63;;;1.50;;
3995;SDS011;2012;49.794;9.722;2023-09-19T12:39:49;3.70;;;1.43;;
3995;SDS011;2012;49.794;9.722;2023-09-19T12:42:25;4.17;;;1.70;;
3995;SDS011;2012;49.794;9.722;2023-09-19T12:44:57;4.20;;;1.43;;
3995;SDS011;2012;49.794;9.722;2023-09-19T12:47:27;2.40;;;1.43;;
3995;SDS011;2012;49.794;9.722;2023-09-19T12:52:46;4.03;;;1.83;;
3995;SDS011;2012;49.794;9.722;2023-09-19T12:55:28;4.07;;;1.43;;
3995;SDS011;2012;49.794;9.722;2023-09-19T12:58:01;3.63;;;1.73;;
3995;SDS011;2012;49.794;9.722;2023-09-19T13:00:32;5.90;;;1.30;;
3995;SDS011;2012;49.794;9.722;2023-09-19T13:03:17;5.23;;;1.53;;
3995;SDS011;2012;49.794;9.722;2023-09-19T13:05:52;3.20;;;1.20;;
3995;SDS011;2012;49.794;9.722;2023-09-19T13:08:26;3.80;;;1.33;;
3995;SDS011;2012;49.794;9.722;2023-09-19T13:13:33;3.67;;;1.30;;
3995;SDS011;2012;49.794;9.722;2023-09-19T13:16:02;2.60;;;1.50;;
3995;SDS011;2012;49.794;9.722;2023-09-19T13:18:47;3.10;;;1.10;;
3995;SDS011;2012;49.794;9.722;2023-09-19T13:24:18;3.63;;;1.40;;
3995;SDS011;2012;49.794;9.722;2023-09-19T13:26:47;4.37;;;1.47;;
3995;SDS011;2012;49.794;9.722;2023-09-19T13:29:14;3.17;;;1.20;;
3995;SDS011;2012;49.794;9.722;2023-09-19T13:31:48;8.87;;;1.87;;
3995;SDS011;2012;49.794;9.722;2023-09-19T13:34:16;2.60;;;1.13;;
3995;SDS011;2012;49.794;9.722;2023-09-19T13:36:44;4.37;;;1.23;;
3995;SDS011;2012;49.794;9.722;2023-09-19T13:39:11;1.90;;;1.30;;
3995;SDS011;2012;49.794;9.722;2023-09-19T13:41:46;2.77;;;1.40;;
3995;SDS011;2012;49.794;9.722;2023-09-19T13:44:14;5.80;;;1.50;;
3995;SDS011;2012;49.794;9.722;2023-09-19T13:46:43;3.73;;;1.87;;
3995;SDS011;2012;49.794;9.722;2023-09-19T13:49:14;4.10;;;1.40;;
3995;SDS011;2012;49.794;9.722;2023-09-19T13:51:41;4.07;;;1.17;;
3995;SDS011;2012;49.794;9.722;2023-09-19T13:54:10;4.57;;;1.30;;
3995;SDS011;2012;49.794;9.722;2023-09-19T13:56:40;4.10;;;1.30;;
3995;SDS011;2012;49.794;9.722;2023-09-19T13:59:07;3.80;;;1.10;;
3995;SDS011;2012;49.794;9.722;2023-09-19T14:01:34;1.63;;;1.27;;
3995;SDS011;2012;49.794;9.722;2023-09-19T14:04:01;4.83;;;1.60;;
3995;SDS011;2012;49.794;9.722;2023-09-19T14:06:29;3.53;;;1.27;;
3995;SDS011;2012;49.794;9.722;2023-09-19T14:08:55;4.43;;;1.50;;
3995;SDS011;2012;49.794;9.722;2023-09-19T14:11:22;6.30;;;1.20;;
3995;SDS011;2012;49.794;9.722;2023-09-19T14:13:49;1.67;;;1.00;;
3995;SDS011;2012;49.794;9.722;2023-09-19T14:16:21;2.23;;;1.40;;
3995;SDS011;2012;49.794;9.722;2023-09-19T14:18:48;3.60;;;1.20;;
3995;SDS011;2012;49.794;9.722;2023-09-19T14:21:15;4.00;;;1.27;;
3995;SDS011;2012;49.794;9.722;2023-09-19T14:23:42;4.10;;;1.10;;
3995;SDS011;2012;49.794;9.722;2023-09-19T14:26:10;8.40;;;1.33;;
3995;SDS011;2012;49.794;9.722;2023-09-19T14:28:37;2.70;;;1.43;;
3995;SDS011;2012;49.794;9.722;2023-09-19T14:31:09;15.13;;;1.53;;
3995;SDS011;2012;49.794;9.722;2023-09-19T14:33:37;2.60;;;1.40;;
3995;SDS011;2012;49.794;9.722;2023-09-19T14:36:05;6.27;;;1.40;;
3995;SDS011;2012;49.794;9.722;2023-09-19T14:38:33;4.80;;;1.73;;
3995;SDS011;2012;49.794;9.722;2023-09-19T14:41:01;2.90;;;1.20;;
3995;SDS011;2012;49.794;9.722;2023-09-19T14:43:28;7.43;;;1.57;;
3995;SDS011;2012;49.794;9.722;2023-09-19T14:45:56;1.97;;;1.30;;
3995;SDS011;2012;49.794;9.722;2023-09-19T14:48:23;2.20;;;1.50;;
3995;SDS011;2012;49.794;9.722;2023-09-19T14:50:52;1.60;;;1.20;;
3995;SDS011;2012;49.794;9.722;2023-09-19T14:53:19;3.20;;;1.20;;
3995;SDS011;2012;49.794;9.722;2023-09-19T14:55:47;6.50;;;1.20;;
3995;SDS011;2012;49.794;9.722;2023-09-19T14:58:18;2.90;;;1.10;;
3995;SDS011;2012;49.794;9.722;2023-09-19T15:00:45;1.67;;;1.00;;
3995;SDS011;2012;49.794;9.722;2023-09-19T15:03:12;2.73;;;1.20;;
3995;SDS011;2012;49.794;9.722;2023-09-19T15:05:40;6.53;;;1.90;;
3995;SDS011;2012;49.794;9.722;2023-09-19T15:08:07;2.17;;;1.37;;
3995;SDS011;2012;49.794;9.722;2023-09-19T15:10:34;5.83;;;1.73;;
3995;SDS011;2012;49.794;9.722;2023-09-19T15:13:01;5.33;;;1.47;;
3995;SDS011;2012;49.794;9.722;2023-09-19T15:15:28;6.53;;;1.33;;
3995;SDS011;2012;49.794;9.722;2023-09-19T15:17:54;1.80;;;1.27;;
3995;SDS011;2012;49.794;9.722;2023-09-19T15:20:22;2.30;;;1.50;;
3995;SDS011;2012;49.794;9.722;2023-09-19T15:22:49;4.60;;;1.30;;
3995;SDS011;2012;49.794;9.722;2023-09-19T15:25:17;2.83;;;1.20;;
3995;SDS011;2012;49.794;9.722;2023-09-19T15:27:44;2.40;;;1.40;;
3995;SDS011;2012;49.794;9.722;2023-09-19T15:30:11;3.73;;;1.37;;
3995;SDS011;2012;49.794;9.722;2023-09-19T15:32:41;5.73;;;1.83;;
3995;SDS011;2012;49.794;9.722;2023-09-19T15:35:08;5.20;;;1.30;;
3995;SDS011;2012;49.794;9.722;2023-09-19T15:37:39;2.73;;;1.10;;
3995;SDS011;2012;49.794;9.722;2023-09-19T15:40:07;3.23;;;1.30;;
3995;SDS011;2012;49.794;9.722;2023-09-19T15:42:37;3.47;;;1.23;;
3995;SDS011;2012;49.794;9.722;2023-09-19T15:45:04;2.80;;;1.60;;
3995;SDS011;2012;49.794;9.722;2023-09-19T15:47:31;2.17;;;1.20;;
3995;SDS011;2012;49.794;9.722;2023-09-19T15:49:58;1.63;;;1.00;;
3995;SDS011;2012;49.794;9.722;2023-09-19T15:52:26;1.97;;;1.10;;
3995;SDS011;2012;49.794;9.722;2023-09-19T15:54:53;1.97;;;1.30;;
3995;SDS011;2012;49.794;9.722;2023-09-19T15:57:20;4.73;;;1.20;;
3995;SDS011;2012;49.794;9.722;2023-09-19T15:59:47;3.93;;;1.30;;
3995;SDS011;2012;49.794;9.722;2023-09-19T16:02:14;1.50;;;1.40;;
3995;SDS011;2012;49.794;9.722;2023-09-19T16:04:41;2.40;;;1.23;;
3995;SDS011;2012;49.794;9.722;2023-09-19T16:07:10;6.13;;;1.30;;
3995;SDS011;2012;49.794;9.722;2023-09-19T16:09:37;5.53;;;1.87;;
3995;SDS011;2012;49.794;9.722;2023-09-19T16:12:03;5.40;;;1.20;;
3995;SDS011;2012;49.794;9.722;2023-09-19T16:14:31;2.90;;;1.40;;
3995;SDS011;2012;49.794;9.722;2023-09-19T16:16:58;7.13;;;1.40;;
3995;SDS011;2012;49.794;9.722;2023-09-19T16:19:26;2.60;;;1.00;;
3995;SDS011;2012;49.794;9.722;2023-09-19T16:21:52;1.90;;;1.10;;
3995;SDS011;2012;49.794;9.722;2023-09-19T16:24:19;1.40;;;1.00;;
3995;SDS011;2012;49.794;9.722;2023-09-19T16:26:46;2.63;;;1.17;;
3995;SDS011;2012;49.794;9.722;2023-09-19T16:29:13;2.73;;;1.30;;
3995;SDS011;2012;49.794;9.722;2023-09-19T16:31:40;2.90;;;1.07;;
3995;SDS011;2012;49.794;9.722;2023-09-19T16:34:07;3.80;;;1.23;;
3995;SDS011;2012;49.794;9.722;2023-09-19T16:36:35;2.30;;;1.10;;
3995;SDS011;2012;49.794;9.722;2023-09-19T16:39:02;2.40;;;1.10;;